Lil Susan S — WBD8211 — position and weather

sailwx.info

Track history (hours):
 
Tides and Currents Weather Stations Pressure Air Temp Water Temp Dewpoint Dewpoint Depression Visibility Wind Speed Wind Dir Waves Ship Positions

Lil Susan S

Owner: S & W MARINE INC, LOCKPORT, LA. More information available from US FCC via Universal Licensing System and Coast Guard Vessel Documentation Center.

Last reported at 2018-Jun-12 01:54 UTC. Time now 2018-Jun-19 20:06 UTC.
Position N 30°23' W 087°00'.

Length 25 m; draft 2.6 m.

Type: Towing. MMSI: 367011790.

Date/timePositionNaut miles runAvg speedWind from/ knotsBaromVisibWave heightAir tempDewpointWater temp
2018-Jun-12 01:54N 30°23' W 087°00'3 6.1
2018-Jun-12 01:30N 30°23' W 086°58'3 5.9
2018-Jun-12 01:00N 30°24' W 086°54'3 6.1
2018-Jun-12 00:30N 30°24' W 086°51'3 6.0
2018-Jun-12 00:00N 30°24' W 086°47'3 5.9
2018-Jun-11 23:30N 30°24' W 086°44'4 5.8
2018-Jun-11 22:49N 30°24' W 086°39'7 5.3
2018-Jun-11 21:33N 30°25' W 086°32'0 6.2
2018-Jun-11 21:30N 30°25' W 086°31'3 6.2
2018-Jun-11 20:57N 30°26' W 086°28'3 6.1
2018-Jun-11 20:30N 30°26' W 086°24'3 6.3
2018-Jun-11 20:00N 30°26' W 086°21'4 0.1
2018-Jun-10 07:35N 30°26' W 086°17'1 4.3
2018-Jun-10 07:28N 30°26' W 086°17'2 4.3
2018-Jun-10 07:00N 30°26' W 086°19'2 4.2
2018-Jun-10 06:30N 30°26' W 086°22'3 5.3
2018-Jun-10 05:59N 30°26' W 086°25'3 5.4
2018-Jun-10 05:30N 30°26' W 086°28'10 4.8
2018-Jun-10 03:27N 30°24' W 086°39'2 5.0
2018-Jun-10 03:00N 30°24' W 086°42'2 3.9
2018-Jun-10 02:30N 30°24' W 086°44'3 5.0
2018-Jun-10 02:00N 30°24' W 086°47'3 5.2
2018-Jun-10 01:28N 30°24' W 086°50'2 5.3
2018-Jun-10 01:00N 30°24' W 086°53'3 5.5
2018-Jun-10 00:30N 30°23' W 086°56'  
Track history (hours):
 
Tides and Currents Weather Stations Pressure Air Temp Water Temp Dewpoint Dewpoint Depression Visibility Wind Speed Wind Dir Waves Ship Positions

Lil Susan S

Owner: S & W MARINE INC, LOCKPORT, LA. More information available from US FCC via Universal Licensing System and Coast Guard Vessel Documentation Center.

Last reported at 2018-Jun-12 01:54 UTC. Time now 2018-Jun-19 20:06 UTC.
Position N 30°23' W 087°00'.

Length 25 m; draft 2.6 m.

Type: Towing. MMSI: 367011790.

Date/timePositionNaut miles runAvg speedWind from/ knotsBaromVisibWave heightAir tempDewpointWater temp
2018-Jun-12 01:54N 30°23' W 087°00'3 6.1
2018-Jun-12 01:30N 30°23' W 086°58'3 5.9
2018-Jun-12 01:00N 30°24' W 086°54'3 6.1
2018-Jun-12 00:30N 30°24' W 086°51'3 6.0
2018-Jun-12 00:00N 30°24' W 086°47'3 5.9
2018-Jun-11 23:30N 30°24' W 086°44'4 5.8
2018-Jun-11 22:49N 30°24' W 086°39'7 5.3
2018-Jun-11 21:33N 30°25' W 086°32'0 6.2
2018-Jun-11 21:30N 30°25' W 086°31'3 6.2
2018-Jun-11 20:57N 30°26' W 086°28'3 6.1
2018-Jun-11 20:30N 30°26' W 086°24'3 6.3
2018-Jun-11 20:00N 30°26' W 086°21'4 0.1
2018-Jun-10 07:35N 30°26' W 086°17'1 4.3
2018-Jun-10 07:28N 30°26' W 086°17'2 4.3
2018-Jun-10 07:00N 30°26' W 086°19'2 4.2
2018-Jun-10 06:30N 30°26' W 086°22'3 5.3
2018-Jun-10 05:59N 30°26' W 086°25'3 5.4
2018-Jun-10 05:30N 30°26' W 086°28'10 4.8
2018-Jun-10 03:27N 30°24' W 086°39'2 5.0
2018-Jun-10 03:00N 30°24' W 086°42'2 3.9
2018-Jun-10 02:30N 30°24' W 086°44'3 5.0
2018-Jun-10 02:00N 30°24' W 086°47'3 5.2
2018-Jun-10 01:28N 30°24' W 086°50'2 5.3
2018-Jun-10 01:00N 30°24' W 086°53'3 5.5
2018-Jun-10 00:30N 30°23' W 086°56'  

Dump ship's entire track history